Time;durP1;ratioP1;P1;durP2;ratioP2;P2;SDS_P1;SDS_P2;PMS_P1;PMS_P2;Temp;Humidity;BMP_temperature;BMP_pressure;BME280_temperature;BME280_humidity;BME280_pressure;Samples;Min_cycle;Max_cycle;Signal;HPM_P1;HPM_P2
2022/05/21 00:01:54;;;;;;;3.75;1.15;;;21.30;61.30;;;;;;4476588;31;20096;-66
2022/05/21 00:04:20;;;;;;;4.22;1.42;;;21.30;61.30;;;;;;4476696;32;20088;-66
2022/05/21 00:06:46;;;;;;;3.67;1.50;;;21.30;61.30;;;;;;4476658;32;20091;-66
2022/05/21 00:09:12;;;;;;;3.42;1.20;;;21.30;61.30;;;;;;4475613;32;20112;-66
2022/05/21 00:11:39;;;;;;;6.90;1.40;;;21.30;61.30;;;;;;4476681;31;20396;-66
2022/05/21 00:14:06;;;;;;;3.60;1.20;;;21.30;61.30;;;;;;4475563;32;20326;-66
2022/05/21 00:16:31;;;;;;;3.53;1.33;;;21.30;61.30;;;;;;4476596;31;20074;-66
2022/05/21 00:18:57;;;;;;;6.20;1.60;;;21.30;61.30;;;;;;4476589;32;20131;-66
2022/05/21 00:21:26;;;;;;;3.15;1.10;;;21.30;61.20;;;;;;4476333;32;20107;-66
2022/05/21 00:23:54;;;;;;;4.35;1.52;;;21.20;61.20;;;;;;4476482;31;20419;-66
2022/05/21 00:26:21;;;;;;;5.07;1.25;;;21.20;61.20;;;;;;4476483;32;20488;-66
2022/05/21 00:28:49;;;;;;;3.22;1.25;;;21.20;61.20;;;;;;4476425;32;20065;-66
2022/05/21 00:31:17;;;;;;;2.65;1.13;;;21.20;61.20;;;;;;4476297;32;20092;-66
2022/05/21 00:33:44;;;;;;;3.10;0.88;;;21.20;61.20;;;;;;4476449;31;20246;-64
2022/05/21 00:36:11;;;;;;;4.47;1.02;;;21.20;61.20;;;;;;4476601;31;20070;-66
2022/05/21 00:38:38;;;;;;;4.78;0.98;;;21.20;61.20;;;;;;4476080;31;20089;-66
2022/05/21 00:41:05;;;;;;;3.35;0.93;;;21.20;61.10;;;;;;4476087;32;20511;-66
2022/05/21 00:43:38;;;;;;;4.25;1.20;;;21.20;61.20;;;;;;4476046;32;20081;-66
2022/05/21 00:46:07;;;;;;;2.40;1.00;;;21.20;61.10;;;;;;4476118;32;20096;-66
2022/05/21 00:48:35;;;;;;;4.38;1.30;;;21.20;61.10;;;;;;4476196;31;20085;-66
2022/05/21 00:51:01;;;;;;;2.15;0.95;;;21.20;61.10;;;;;;4475994;32;20088;-66
2022/05/21 00:53:27;;;;;;;4.22;1.50;;;21.20;61.20;;;;;;4476511;32;20058;-66
2022/05/21 00:55:54;;;;;;;3.08;1.08;;;21.20;61.20;;;;;;4476344;32;20235;-66
2022/05/21 01:01:07;;;;;;;2.80;1.50;;;21.20;61.10;;;;;;4476270;32;20085;-66
2022/05/21 01:03:33;;;;;;;2.75;0.90;;;21.10;61.10;;;;;;4475921;32;20093;-66
2022/05/21 01:06:05;;;;;;;4.93;1.15;;;21.10;61.10;;;;;;4476155;32;20058;-66
2022/05/21 01:08:31;;;;;;;2.78;1.10;;;21.10;61.10;;;;;;4476224;32;20077;-66
2022/05/21 01:11:06;;;;;;;4.18;1.10;;;21.10;61.10;;;;;;4475329;32;20093;-68
2022/05/21 01:13:34;;;;;;;3.08;1.08;;;21.10;61.10;;;;;;4476239;32;20521;-66
2022/05/21 01:16:01;;;;;;;3.03;1.00;;;21.10;61.10;;;;;;4476176;32;20069;-66
2022/05/21 01:18:27;;;;;;;2.38;1.20;;;21.10;61.10;;;;;;4476079;32;20085;-66
2022/05/21 01:20:56;;;;;;;4.18;1.10;;;21.10;61.10;;;;;;4476018;32;20084;-66
2022/05/21 01:23:22;;;;;;;4.53;1.45;;;21.10;61.10;;;;;;4476043;32;20231;-66
2022/05/21 01:25:49;;;;;;;3.75;0.90;;;21.10;61.10;;;;;;4475784;32;20179;-66
2022/05/21 01:28:19;;;;;;;3.42;1.20;;;21.10;61.10;;;;;;4475984;32;20114;-66
2022/05/21 01:30:49;;;;;;;3.00;1.00;;;21.10;61.00;;;;;;4475794;32;20105;-66
2022/05/21 01:33:17;;;;;;;4.25;0.93;;;21.10;61.10;;;;;;4475944;32;20128;-66
2022/05/21 01:35:45;;;;;;;2.67;1.00;;;21.10;61.00;;;;;;4475972;32;20510;-66
2022/05/21 01:38:15;;;;;;;1.67;0.88;;;21.00;61.00;;;;;;4476247;32;20574;-66
2022/05/21 01:40:42;;;;;;;3.92;1.27;;;21.00;61.00;;;;;;4476260;32;20078;-66
2022/05/21 01:45:53;;;;;;;6.88;0.90;;;21.00;61.00;;;;;;4479157;32;20085;-66
2022/05/21 01:48:21;;;;;;;3.90;0.80;;;21.00;61.00;;;;;;4478827;31;20085;-66
2022/05/21 01:50:48;;;;;;;3.28;1.10;;;21.00;61.00;;;;;;4478739;31;20231;-66
2022/05/21 01:53:15;;;;;;;1.48;0.80;;;21.00;60.90;;;;;;4478662;31;20113;-66
2022/05/21 01:55:43;;;;;;;2.58;0.98;;;21.00;60.90;;;;;;4478490;31;20093;-66
2022/05/21 01:58:09;;;;;;;2.83;0.82;;;21.00;60.90;;;;;;4478575;32;20549;-66
2022/05/21 02:00:35;;;;;;;3.47;0.93;;;21.00;61.00;;;;;;4478576;31;20114;-66
2022/05/21 02:03:03;;;;;;;2.30;0.85;;;21.00;60.90;;;;;;4478686;31;20525;-66
2022/05/21 02:05:29;;;;;;;3.90;1.10;;;20.90;60.90;;;;;;4478521;32;20089;-66
2022/05/21 02:07:55;;;;;;;3.03;1.15;;;21.00;61.00;;;;;;4478422;31;20140;-66
2022/05/21 02:10:22;;;;;;;1.80;0.77;;;21.00;61.00;;;;;;4478417;31;20155;-66
2022/05/21 02:12:48;;;;;;;3.92;0.90;;;20.90;60.80;;;;;;4478499;31;20077;-66
2022/05/21 02:15:14;;;;;;;2.55;1.00;;;21.00;61.00;;;;;;4478364;32;20596;-67
2022/05/21 02:17:40;;;;;;;2.60;0.95;;;21.00;61.00;;;;;;4478166;32;20530;-66
2022/05/21 02:20:07;;;;;;;2.25;0.88;;;20.90;60.90;;;;;;4478075;31;20090;-66
2022/05/21 02:22:33;;;;;;;2.38;0.90;;;20.90;60.80;;;;;;4478275;32;20175;-66
2022/05/21 02:24:58;;;;;;;3.20;0.80;;;20.90;60.90;;;;;;4478261;32;20081;-66
2022/05/21 02:27:24;;;;;;;2.30;0.90;;;20.90;60.90;;;;;;4477978;31;20113;-66
2022/05/21 02:29:51;;;;;;;1.80;0.88;;;20.90;60.90;;;;;;4478350;31;20066;-66
2022/05/21 02:32:17;;;;;;;3.88;0.88;;;20.90;60.90;;;;;;4478176;32;20170;-67
2022/05/21 02:34:43;;;;;;;4.05;0.90;;;20.90;60.90;;;;;;4478077;32;20503;-66
2022/05/21 02:39:54;;;;;;;3.42;0.95;;;20.90;60.90;;;;;;4478035;32;20162;-66
2022/05/21 02:45:17;;;;;;;2.83;0.60;;;20.90;60.80;;;;;;4473440;32;20470;-66
2022/05/21 02:47:44;;;;;;;1.80;1.15;;;20.90;60.80;;;;;;4477962;31;20091;-66
2022/05/21 02:50:11;;;;;;;1.20;0.70;;;20.90;60.90;;;;;;4477844;31;20167;-66
2022/05/21 02:52:37;;;;;;;2.03;0.80;;;20.90;60.90;;;;;;4477552;32;20070;-67
2022/05/21 02:55:04;;;;;;;1.92;0.80;;;20.90;60.90;;;;;;4477091;31;20084;-66
2022/05/21 02:57:31;;;;;;;1.77;0.77;;;20.90;60.90;;;;;;4477745;31;20078;-67
2022/05/21 03:00:00;;;;;;;1.50;0.60;;;20.80;60.90;;;;;;4478015;31;20065;-66
2022/05/21 03:02:27;;;;;;;1.42;0.80;;;20.80;60.80;;;;;;4476782;32;20061;-66
2022/05/21 03:04:53;;;;;;;2.53;1.20;;;20.80;60.90;;;;;;4477412;31;20109;-66
2022/05/21 03:07:19;;;;;;;2.47;0.68;;;20.80;60.90;;;;;;4477635;31;20179;-67
2022/05/21 03:12:31;;;;;;;2.13;0.90;;;20.80;60.80;;;;;;4477621;32;20087;-66
2022/05/21 03:14:57;;;;;;;2.15;0.80;;;20.80;60.90;;;;;;4477544;32;20077;-66
2022/05/21 03:17:26;;;;;;;2.28;0.90;;;20.80;60.90;;;;;;4477539;31;20215;-66
2022/05/21 03:19:51;;;;;;;3.88;0.98;;;20.80;60.90;;;;;;4477485;31;20503;-66
2022/05/21 03:22:17;;;;;;;1.75;0.80;;;20.80;60.90;;;;;;4476469;32;20065;-66
2022/05/21 03:24:44;;;;;;;3.45;0.98;;;20.80;60.90;;;;;;4477389;32;20282;-66
2022/05/21 03:27:10;;;;;;;2.80;0.90;;;20.80;60.90;;;;;;4477609;31;20093;-66
2022/05/21 03:29:37;;;;;;;2.40;0.82;;;20.80;60.90;;;;;;4475972;32;20065;-66
2022/05/21 03:32:04;;;;;;;2.85;0.60;;;20.80;60.90;;;;;;4477585;32;20141;-67
2022/05/21 03:34:30;;;;;;;1.52;0.60;;;20.80;60.90;;;;;;4477031;31;20561;-66
2022/05/21 03:36:56;;;;;;;1.38;0.60;;;20.80;60.90;;;;;;4476192;32;20077;-66
2022/05/21 03:39:23;;;;;;;4.80;0.95;;;20.80;60.90;;;;;;4477432;31;20191;-67
2022/05/21 03:41:49;;;;;;;1.67;0.50;;;20.80;60.90;;;;;;4476855;32;20073;-66
2022/05/21 03:44:15;;;;;;;2.30;0.60;;;20.80;60.90;;;;;;4477359;32;20116;-67
2022/05/21 03:46:40;;;;;;;2.20;0.85;;;20.80;60.90;;;;;;4476998;32;20065;-69
2022/05/21 03:49:07;;;;;;;2.00;0.73;;;20.80;61.00;;;;;;4475561;32;20092;-67
2022/05/21 03:51:34;;;;;;;3.45;0.90;;;20.70;60.90;;;;;;4477076;31;20085;-66
2022/05/21 03:54:00;;;;;;;1.75;0.70;;;20.70;60.90;;;;;;4476600;31;20088;-66
2022/05/21 03:56:25;;;;;;;2.95;0.90;;;20.70;60.90;;;;;;4476983;31;20403;-66
2022/05/21 03:58:51;;;;;;;2.80;0.75;;;20.70;60.90;;;;;;4476995;31;20124;-66
2022/05/21 04:01:19;;;;;;;2.78;0.80;;;20.70;60.90;;;;;;4476527;31;20163;-66
2022/05/21 04:03:45;;;;;;;2.63;0.65;;;20.70;60.90;;;;;;4476985;31;20117;-66
2022/05/21 04:06:12;;;;;;;1.80;0.70;;;20.70;60.90;;;;;;4476064;32;20151;-66
2022/05/21 04:08:38;;;;;;;2.17;0.75;;;20.70;60.90;;;;;;4476586;31;20509;-66
2022/05/21 04:11:04;;;;;;;1.88;0.80;;;20.70;60.90;;;;;;4476935;31;20080;-66
2022/05/21 04:13:30;;;;;;;2.38;0.75;;;20.70;61.00;;;;;;4476774;31;20069;-66
2022/05/21 04:15:56;;;;;;;1.20;0.60;;;20.70;61.00;;;;;;4477001;31;20085;-66
2022/05/21 04:18:22;;;;;;;3.28;0.82;;;20.60;60.90;;;;;;4476644;31;20096;-66
2022/05/21 04:20:48;;;;;;;2.13;0.93;;;20.60;60.90;;;;;;4476302;32;20092;-66
2022/05/21 04:23:14;;;;;;;2.83;1.00;;;20.70;61.00;;;;;;4476578;31;20223;-66
2022/05/21 04:25:40;;;;;;;3.63;0.80;;;20.60;60.90;;;;;;4476547;32;20061;-66
2022/05/21 04:28:05;;;;;;;2.22;0.70;;;20.70;61.00;;;;;;4476267;32;20380;-66
2022/05/21 04:30:35;;;;;;;3.38;0.90;;;20.70;61.00;;;;;;4476376;32;20162;-66
2022/05/21 04:33:01;;;;;;;3.22;0.90;;;20.70;61.00;;;;;;4476708;31;20073;-66
2022/05/21 04:38:12;;;;;;;2.92;0.75;;;20.60;60.90;;;;;;4476659;32;20207;-66
2022/05/21 04:40:38;;;;;;;1.70;0.73;;;20.60;60.90;;;;;;4476367;31;20411;-66
2022/05/21 04:43:04;;;;;;;1.48;0.70;;;20.60;60.90;;;;;;4476441;32;20518;-66
2022/05/21 04:45:30;;;;;;;1.17;0.70;;;20.60;61.00;;;;;;4476368;32;20391;-66
2022/05/21 04:47:56;;;;;;;1.50;0.60;;;20.60;60.90;;;;;;4476514;31;20087;-66
2022/05/21 04:50:22;;;;;;;1.25;0.68;;;20.60;60.90;;;;;;4476323;32;20069;-66
2022/05/21 04:52:48;;;;;;;1.90;0.70;;;20.60;60.90;;;;;;4476287;32;20077;-66
2022/05/21 04:55:14;;;;;;;2.58;0.88;;;20.60;60.90;;;;;;4476046;32;20077;-66
2022/05/21 04:57:40;;;;;;;1.75;0.85;;;20.60;61.00;;;;;;4476001;32;20158;-66
2022/05/21 05:00:06;;;;;;;1.10;0.43;;;20.60;61.00;;;;;;4476251;32;20093;-66
2022/05/21 05:02:32;;;;;;;1.42;0.65;;;20.60;60.90;;;;;;4476418;32;20066;-66
2022/05/21 05:04:58;;;;;;;2.30;0.70;;;20.60;61.00;;;;;;4476186;32;20159;-66
2022/05/21 05:07:24;;;;;;;3.60;0.85;;;20.60;61.00;;;;;;4475926;32;20069;-66
2022/05/21 05:09:50;;;;;;;2.22;0.75;;;20.60;61.00;;;;;;4476120;32;20239;-66
2022/05/21 05:12:16;;;;;;;2.92;0.60;;;20.60;61.00;;;;;;4476172;32;20506;-66
2022/05/21 05:14:42;;;;;;;2.15;0.80;;;20.60;60.90;;;;;;4476129;32;20084;-66
2022/05/21 05:17:12;;;;;;;2.60;0.80;;;20.50;61.00;;;;;;4476208;32;20124;-66
2022/05/21 05:19:38;;;;;;;2.40;0.98;;;20.60;61.00;;;;;;4479348;31;20207;-66
2022/05/21 05:22:04;;;;;;;1.98;0.65;;;20.60;61.00;;;;;;4479000;31;20510;-66
2022/05/21 05:24:30;;;;;;;1.75;0.80;;;20.60;60.90;;;;;;4479154;31;20414;-66
2022/05/21 05:26:56;;;;;;;5.05;0.90;;;20.60;60.90;;;;;;4479161;32;20495;-66
2022/05/21 05:29:22;;;;;;;3.33;0.90;;;20.60;60.90;;;;;;4477965;32;20069;-66
2022/05/21 05:31:48;;;;;;;2.53;0.88;;;20.50;60.90;;;;;;4464730;32;20073;-66
2022/05/21 05:34:13;;;;;;;3.08;0.80;;;20.60;61.00;;;;;;4479055;32;20159;-66
2022/05/21 05:36:39;;;;;;;2.03;0.70;;;20.60;61.00;;;;;;4479245;31;20073;-66
2022/05/21 05:39:05;;;;;;;1.67;0.90;;;20.60;61.00;;;;;;4478925;31;20231;-66
2022/05/21 05:41:31;;;;;;;1.58;0.70;;;20.60;61.00;;;;;;4478987;31;20398;-66
2022/05/21 05:43:58;;;;;;;3.08;0.68;;;20.60;61.00;;;;;;4478862;31;20078;-66
2022/05/21 05:46:24;;;;;;;3.10;0.93;;;20.60;61.00;;;;;;4478510;31;20081;-66
2022/05/21 05:48:50;;;;;;;1.63;0.77;;;20.60;61.00;;;;;;4478724;31;20069;-66
2022/05/21 05:51:18;;;;;;;2.33;0.75;;;20.60;61.00;;;;;;4478716;31;20100;-66
2022/05/21 05:53:48;;;;;;;1.55;0.60;;;20.50;61.00;;;;;;4478408;32;20073;-66
2022/05/21 05:56:15;;;;;;;1.83;0.80;;;20.60;61.10;;;;;;4478941;31;20290;-66
2022/05/21 06:01:26;;;;;;;2.97;0.77;;;20.60;61.00;;;;;;4478642;32;20132;-66
2022/05/21 06:03:52;;;;;;;1.85;0.77;;;20.50;61.00;;;;;;4478576;31;20088;-66
2022/05/21 06:06:18;;;;;;;2.15;0.70;;;20.50;61.00;;;;;;4478219;32;20210;-66
2022/05/21 06:08:44;;;;;;;2.90;0.90;;;20.50;61.00;;;;;;4477364;32;20476;-66
2022/05/21 06:11:15;;;;;;;2.53;0.77;;;20.50;61.00;;;;;;4478507;32;20493;-66
2022/05/21 06:13:44;;;;;;;2.00;0.70;;;20.50;61.00;;;;;;4479067;31;20065;-64
2022/05/21 06:16:10;;;;;;;2.17;0.93;;;20.50;61.00;;;;;;4478403;31;20521;-66
2022/05/21 06:18:36;;;;;;;2.67;0.95;;;20.50;61.10;;;;;;4478327;32;20085;-66
2022/05/21 06:21:04;;;;;;;2.85;0.70;;;20.50;61.10;;;;;;4478041;32;20210;-65
2022/05/21 06:23:31;;;;;;;2.35;0.88;;;20.50;61.10;;;;;;4478078;31;20093;-67
2022/05/21 06:25:59;;;;;;;3.88;1.02;;;20.50;61.10;;;;;;4477103;32;20096;-65
2022/05/21 06:28:25;;;;;;;1.83;0.70;;;20.50;61.00;;;;;;4477946;31;20109;-65
2022/05/21 06:30:51;;;;;;;3.13;0.70;;;20.50;61.00;;;;;;4476450;32;20511;-66
2022/05/21 06:33:20;;;;;;;4.30;0.75;;;20.50;61.00;;;;;;4478181;32;20136;-66
2022/05/21 06:36:01;;;;;;;2.10;0.50;;;20.50;61.00;;;;;;4477884;31;20218;-66
2022/05/21 06:38:27;;;;;;;1.88;0.73;;;20.50;61.90;;;;;;4478172;31;20092;-66
2022/05/21 06:40:52;;;;;;;1.88;0.88;;;20.60;61.00;;;;;;4478316;31;20070;-65
2022/05/21 06:43:20;;;;;;;3.70;0.85;;;20.50;60.90;;;;;;4478019;31;20073;-67
2022/05/21 06:45:46;;;;;;;5.15;0.88;;;20.60;61.00;;;;;;4477985;31;20215;-66
2022/05/21 06:48:11;;;;;;;4.68;0.98;;;20.50;61.00;;;;;;4477718;32;20172;-65
2022/05/21 06:50:39;;;;;;;5.78;1.00;;;20.60;61.10;;;;;;4477873;31;20109;-65
2022/05/21 06:53:06;;;;;;;4.85;1.40;;;20.50;61.20;;;;;;4477913;31;20120;-65
2022/05/21 06:55:32;;;;;;;3.63;1.10;;;20.60;62.10;;;;;;4477413;31;20537;-66
2022/05/21 06:57:58;;;;;;;3.05;0.90;;;20.60;61.30;;;;;;4477803;32;20086;-64
2022/05/21 07:00:25;;;;;;;9.68;1.70;;;20.70;61.40;;;;;;4477753;31;20081;-64
2022/05/21 07:02:53;;;;;;;4.90;1.33;;;20.70;61.50;;;;;;4477987;32;20082;-64
2022/05/21 07:08:13;;;;;;;4.82;1.30;;;20.80;61.60;;;;;;4477741;32;20516;-64
2022/05/21 07:10:39;;;;;;;5.45;1.33;;;20.90;61.70;;;;;;4477933;31;20077;-64
2022/05/21 07:13:05;;;;;;;5.35;1.50;;;20.90;61.60;;;;;;4477884;31;20284;-64
2022/05/21 07:15:31;;;;;;;4.68;1.45;;;20.90;61.50;;;;;;4477534;31;20073;-64
2022/05/21 07:18:01;;;;;;;7.05;1.58;;;20.90;61.40;;;;;;4477513;32;20491;-64
2022/05/21 07:20:28;;;;;;;6.47;1.60;;;20.90;61.40;;;;;;4477468;31;20069;-64
2022/05/21 07:22:54;;;;;;;7.68;1.58;;;20.90;61.30;;;;;;4477758;32;20183;-64
2022/05/21 07:25:23;;;;;;;6.47;1.70;;;20.90;61.30;;;;;;4477293;31;20531;-64
2022/05/21 07:27:50;;;;;;;5.32;1.48;;;21.00;61.40;;;;;;4477294;31;20418;-64
2022/05/21 07:30:16;;;;;;;7.60;2.03;;;21.00;61.30;;;;;;4477434;31;20201;-64
2022/05/21 07:32:44;;;;;;;6.70;1.67;;;21.00;61.20;;;;;;4477251;31;20218;-64
2022/05/21 07:35:13;;;;;;;6.07;1.45;;;21.00;61.10;;;;;;4477238;31;20081;-64
2022/05/21 07:37:40;;;;;;;8.77;1.80;;;21.10;61.10;;;;;;4477144;32;20089;-64
2022/05/21 07:40:11;;;;;;;5.10;1.58;;;21.00;61.00;;;;;;4475986;32;20202;-64
2022/05/21 07:42:37;;;;;;;8.13;1.52;;;21.00;60.90;;;;;;4477129;32;20568;-64
2022/05/21 07:45:05;;;;;;;8.48;2.08;;;21.10;60.90;;;;;;4477335;32;20220;-64
2022/05/21 07:47:31;;;;;;;6.18;1.60;;;21.00;60.90;;;;;;4477064;31;20077;-64
2022/05/21 07:49:56;;;;;;;9.65;1.90;;;21.10;60.70;;;;;;4477224;31;20136;-64
2022/05/21 07:52:24;;;;;;;11.18;1.70;;;21.10;60.60;;;;;;4476945;31;20077;-64
2022/05/21 07:54:50;;;;;;;6.55;1.88;;;21.00;60.70;;;;;;4476746;32;20077;-64
2022/05/21 07:57:16;;;;;;;7.55;2.03;;;21.10;60.80;;;;;;4477137;31;20525;-64
2022/05/21 07:59:42;;;;;;;6.15;1.60;;;21.00;60.80;;;;;;4476810;32;20080;-64
2022/05/21 08:02:15;;;;;;;6.75;1.92;;;21.10;60.70;;;;;;4476823;32;20477;-64
2022/05/21 08:04:41;;;;;;;9.67;1.83;;;21.10;60.80;;;;;;4477144;32;20159;-64
2022/05/21 08:07:07;;;;;;;7.75;1.50;;;21.10;60.80;;;;;;4476681;31;20092;-64
2022/05/21 08:09:33;;;;;;;8.55;1.52;;;21.10;60.80;;;;;;4476834;32;20403;-64
2022/05/21 08:11:59;;;;;;;7.40;1.92;;;21.20;60.80;;;;;;4476657;32;20077;-64
2022/05/21 08:14:25;;;;;;;13.30;2.33;;;21.20;60.70;;;;;;4476606;31;20083;-64
2022/05/21 08:16:51;;;;;;;6.53;1.83;;;21.30;60.60;;;;;;4476664;32;20161;-64
2022/05/21 08:19:17;;;;;;;6.97;1.98;;;21.30;60.40;;;;;;4475254;32;20600;-64
2022/05/21 08:21:43;;;;;;;6.75;1.88;;;21.30;60.40;;;;;;4476239;32;20073;-64
2022/05/21 08:26:57;;;;;;;10.18;1.77;;;21.30;60.30;;;;;;4476739;32;20073;-64
2022/05/21 08:29:24;;;;;;;5.00;1.50;;;21.40;60.30;;;;;;4476053;32;20069;-64
2022/05/21 08:31:50;;;;;;;5.47;1.60;;;21.40;60.20;;;;;;4476401;32;20092;-64
2022/05/21 08:34:16;;;;;;;8.95;2.00;;;21.40;60.10;;;;;;4476126;31;20097;-64
2022/05/21 08:36:42;;;;;;;8.90;2.00;;;21.40;60.00;;;;;;4476377;32;20066;-64
2022/05/21 08:39:11;;;;;;;6.65;1.70;;;21.50;60.00;;;;;;4476091;32;20085;-64
2022/05/21 08:41:45;;;;;;;9.77;2.05;;;21.50;59.80;;;;;;4476319;32;20113;-64
2022/05/21 08:44:32;;;;;;;16.65;2.50;;;21.50;59.70;;;;;;4475411;32;20120;-64
2022/05/21 08:47:23;;;;;;;6.88;2.00;;;21.50;59.60;;;;;;4476310;32;20096;-64
2022/05/21 08:50:01;;;;;;;7.68;2.00;;;21.60;59.60;;;;;;4474165;32;20077;-64
2022/05/21 08:52:42;;;;;;;7.90;1.77;;;21.60;59.50;;;;;;4476248;31;20116;-64
2022/05/21 08:55:16;;;;;;;11.38;2.17;;;21.60;59.30;;;;;;4476213;32;20139;-64
2022/05/21 08:57:48;;;;;;;6.20;1.83;;;21.60;59.40;;;;;;4476582;32;20087;-64
2022/05/21 09:00:33;;;;;;;9.43;1.95;;;21.60;59.40;;;;;;4476552;32;20077;-64
2022/05/21 09:03:00;;;;;;;9.02;2.38;;;21.60;59.40;;;;;;4476196;32;20096;-64
2022/05/21 09:05:26;;;;;;;9.40;2.30;;;21.60;59.40;;;;;;4476321;32;20211;-64
2022/05/21 09:08:09;;;;;;;9.00;2.08;;;21.60;59.40;;;;;;4476137;32;20612;-64
2022/05/21 09:10:50;;;;;;;7.82;1.77;;;21.60;59.50;;;;;;4476392;32;20095;-64
2022/05/21 09:13:27;;;;;;;8.57;1.90;;;21.60;59.30;;;;;;4475815;32;20113;-64
2022/05/21 09:18:38;;;;;;;8.55;2.53;;;21.60;59.30;;;;;;4476114;32;20400;-64
2022/05/21 09:21:19;;;;;;;9.10;2.30;;;21.60;59.30;;;;;;4476037;32;20553;-64
2022/05/21 09:23:48;;;;;;;7.80;1.80;;;21.60;59.10;;;;;;4474745;32;20073;-64
2022/05/21 09:26:16;;;;;;;8.32;1.63;;;21.60;59.10;;;;;;4476193;32;20081;-64
2022/05/21 09:28:42;;;;;;;8.43;2.00;;;21.60;59.10;;;;;;4476207;32;20070;-64
2022/05/21 09:31:09;;;;;;;15.27;1.98;;;21.60;59.20;;;;;;4475640;32;20595;-64
2022/05/21 09:33:40;;;;;;;8.93;2.00;;;21.70;59.10;;;;;;4475955;32;20098;-64
2022/05/21 09:36:07;;;;;;;8.57;1.95;;;21.70;59.00;;;;;;4474762;32;20120;-63
2022/05/21 09:38:47;;;;;;;11.82;2.20;;;21.60;59.00;;;;;;4475668;32;20507;-64
2022/05/21 09:41:23;;;;;;;10.65;2.33;;;21.60;59.00;;;;;;4476213;32;20495;-64
2022/05/21 09:46:44;;;;;;;11.15;1.88;;;21.60;58.90;;;;;;4475786;32;20078;-64
2022/05/21 09:49:23;;;;;;;12.93;2.30;;;21.50;58.80;;;;;;4475754;32;20214;-64
2022/05/21 09:52:00;;;;;;;7.15;1.80;;;21.50;58.60;;;;;;4475930;32;20163;-64
2022/05/21 09:54:44;;;;;;;10.80;2.65;;;21.50;58.60;;;;;;4475232;32;20247;-64
2022/05/21 09:57:33;;;;;;;6.78;2.05;;;21.50;58.60;;;;;;4475856;32;20192;-64
2022/05/21 10:00:25;;;;;;;9.95;2.22;;;21.50;58.50;;;;;;4475743;32;20131;-64
2022/05/21 10:02:57;;;;;;;11.73;2.15;;;21.50;58.60;;;;;;4475779;32;20515;-64
2022/05/21 10:05:38;;;;;;;8.60;1.87;;;21.50;58.60;;;;;;4477197;32;20083;-63
2022/05/21 10:10:59;;;;;;;8.15;2.38;;;21.50;58.60;;;;;;4478736;32;20658;-65
2022/05/21 10:13:54;;;;;;;8.57;2.08;;;21.50;59.60;;;;;;4478430;31;20617;-65
2022/05/21 10:16:45;;;;;;;6.28;2.03;;;21.50;58.60;;;;;;4477788;32;20223;-65
2022/05/21 10:19:21;;;;;;;8.18;1.70;;;21.50;58.50;;;;;;4478865;31;20140;-66
2022/05/21 10:22:00;;;;;;;6.88;1.83;;;21.50;58.50;;;;;;4478264;31;20069;-66
2022/05/21 10:24:29;;;;;;;10.98;2.60;;;21.50;58.50;;;;;;4478309;31;20121;-65
2022/05/21 10:27:19;;;;;;;11.63;2.38;;;21.50;58.60;;;;;;4477392;32;20159;-65
2022/05/21 10:30:20;;;;;;;9.23;2.05;;;21.40;58.50;;;;;;4478170;32;20087;-65
2022/05/21 10:33:01;;;;;;;12.82;1.92;;;21.50;58.50;;;;;;4477106;32;20692;-65
2022/05/21 10:35:45;;;;;;;10.52;2.20;;;21.40;58.60;;;;;;4478373;31;20092;-65
2022/05/21 10:38:39;;;;;;;8.55;1.90;;;21.40;58.60;;;;;;4478183;31;20530;-65
2022/05/21 10:41:26;;;;;;;9.43;2.42;;;21.40;58.50;;;;;;4476459;31;20065;-66
2022/05/21 10:44:14;;;;;;;10.23;2.08;;;21.40;58.60;;;;;;4476574;32;20074;-65
2022/05/21 10:46:51;;;;;;;7.07;1.90;;;21.40;58.60;;;;;;4475533;32;20214;-65
2022/05/21 10:49:59;;;;;;;10.48;2.22;;;21.40;58.50;;;;;;4477687;31;20283;-65
2022/05/21 10:52:51;;;;;;;7.10;1.80;;;21.40;58.50;;;;;;4469297;31;20100;-65
2022/05/21 10:55:28;;;;;;;7.18;2.10;;;21.40;58.60;;;;;;4477418;31;20191;-65
2022/05/21 10:58:16;;;;;;;8.25;2.13;;;21.40;58.60;;;;;;4476790;32;20195;-65
2022/05/21 11:00:59;;;;;;;9.73;2.50;;;21.40;58.60;;;;;;4477743;31;20207;-65
2022/05/21 11:03:36;;;;;;;10.05;2.13;;;21.40;58.60;;;;;;4477524;31;20073;-65
2022/05/21 11:06:31;;;;;;;9.38;2.20;;;21.40;58.60;;;;;;4477600;31;20085;-65
2022/05/21 11:09:20;;;;;;;7.55;2.47;;;21.40;58.60;;;;;;4477265;32;20282;-65
2022/05/21 11:11:49;;;;;;;10.07;2.45;;;21.40;58.60;;;;;;4477896;31;20167;-65
2022/05/21 11:14:24;;;;;;;9.60;2.10;;;21.40;58.60;;;;;;4477445;31;20095;-65
2022/05/21 11:16:59;;;;;;;7.22;1.95;;;21.50;58.60;;;;;;4475897;32;20065;-65
2022/05/21 11:19:31;;;;;;;11.23;2.40;;;21.40;58.60;;;;;;4477595;31;20112;-66
2022/05/21 11:22:09;;;;;;;9.05;2.00;;;21.50;58.70;;;;;;4477632;31;20171;-67
2022/05/21 11:24:53;;;;;;;9.68;2.22;;;21.50;58.60;;;;;;4477639;31;20070;-67
2022/05/21 11:27:22;;;;;;;;;;;21.50;58.70;;;;;;4478503;31;20089;-66
2022/05/21 11:29:53;;;;;;;10.45;2.33;;;21.50;58.60;;;;;;4477254;32;19985;-66
2022/05/21 11:38:23;;;;;;;10.00;1.90;;;21.50;58.60;;;;;;4477367;32;20077;-66
2022/05/21 11:40:51;;;;;;;9.00;1.98;;;21.60;58.60;;;;;;4477425;32;20089;-68
2022/05/21 11:43:19;;;;;;;11.65;2.30;;;21.60;58.50;;;;;;4477010;31;20588;-68
2022/05/21 11:46:09;;;;;;;6.90;1.90;;;21.60;58.40;;;;;;4477198;31;20073;-68
2022/05/21 11:48:36;;;;;;;9.82;2.47;;;21.60;58.40;;;;;;4477391;32;20080;-69
2022/05/21 11:51:17;;;;;;;11.35;2.42;;;21.60;58.30;;;;;;4476037;32;20194;-68
2022/05/21 11:53:47;;;;;;;5.65;1.85;;;21.60;58.20;;;;;;4477037;31;20166;-69
2022/05/21 11:56:14;;;;;;;9.77;1.75;;;21.60;58.20;;;;;;4476831;32;20062;-68
2022/05/21 11:58:58;;;;;;;6.60;2.00;;;21.70;58.20;;;;;;4477089;31;20093;-70
2022/05/21 12:01:36;;;;;;;9.45;2.42;;;21.70;58.10;;;;;;4477049;31;20605;-69
2022/05/21 12:04:03;;;;;;;8.73;2.25;;;21.70;58.10;;;;;;4476670;32;20095;-68
2022/05/21 12:06:40;;;;;;;9.43;2.08;;;21.70;58.10;;;;;;4476707;31;20132;-68
2022/05/21 12:09:27;;;;;;;8.90;2.35;;;21.70;58.00;;;;;;4477028;32;20113;-68
2022/05/21 12:12:23;;;;;;;8.48;2.15;;;21.70;58.00;;;;;;4476509;31;20168;-70
2022/05/21 12:14:54;;;;;;;9.02;1.92;;;21.70;58.00;;;;;;4476546;31;20286;-66
2022/05/21 12:17:53;;;;;;;5.40;1.67;;;21.70;57.90;;;;;;4476684;31;20073;-66
2022/05/21 12:20:40;;;;;;;8.40;2.05;;;21.70;57.80;;;;;;4470666;31;20092;-65
2022/05/21 12:23:12;;;;;;;13.45;2.40;;;21.70;57.80;;;;;;4476892;31;20117;-66
2022/05/21 12:25:44;;;;;;;11.38;2.15;;;21.70;57.80;;;;;;4476527;32;20494;-66
2022/05/21 12:28:12;;;;;;;7.18;1.83;;;21.70;57.80;;;;;;4475982;31;20517;-65
2022/05/21 12:30:38;;;;;;;8.63;1.83;;;21.70;57.80;;;;;;4476386;32;20074;-66
2022/05/21 12:33:06;;;;;;;9.27;2.30;;;21.70;57.70;;;;;;4476464;32;20147;-66
2022/05/21 12:35:59;;;;;;;9.55;2.17;;;21.70;57.70;;;;;;4476732;32;20495;-67
2022/05/21 12:38:30;;;;;;;11.57;2.27;;;21.70;57.70;;;;;;4488616;31;20088;-66
2022/05/21 12:41:26;;;;;;;9.68;1.98;;;21.70;57.80;;;;;;4476773;32;20246;-66
2022/05/21 12:43:53;;;;;;;5.78;1.88;;;21.80;57.80;;;;;;4476802;31;20262;-66
2022/05/21 12:46:22;;;;;;;7.80;1.92;;;21.80;57.70;;;;;;4476312;32;20195;-66
2022/05/21 12:48:50;;;;;;;6.68;1.83;;;21.80;57.70;;;;;;4476462;32;20077;-66
2022/05/21 12:51:37;;;;;;;10.43;2.10;;;21.80;57.70;;;;;;4475990;32;20507;-66
2022/05/21 12:54:05;;;;;;;7.22;2.03;;;21.80;57.50;;;;;;4476310;31;20099;-73
2022/05/21 12:56:34;;;;;;;9.50;2.47;;;21.80;57.50;;;;;;4476353;32;20065;-67
2022/05/21 12:59:18;;;;;;;6.78;2.05;;;21.80;57.50;;;;;;4476541;32;20419;-66
2022/05/21 13:02:13;;;;;;;8.02;2.00;;;21.90;57.50;;;;;;4476284;32;20085;-66
2022/05/21 13:04:42;;;;;;;9.80;1.75;;;21.90;57.30;;;;;;4476358;32;20204;-66
2022/05/21 13:07:30;;;;;;;6.53;1.90;;;21.90;57.40;;;;;;4475884;32;20457;-67
2022/05/21 13:10:03;;;;;;;8.13;2.30;;;21.90;57.30;;;;;;4476495;32;20070;-66
2022/05/21 13:12:37;;;;;;;6.95;1.90;;;21.90;57.30;;;;;;4476461;32;20427;-67
2022/05/21 13:15:04;;;;;;;5.65;1.45;;;21.90;57.30;;;;;;4476162;32;20089;-66
2022/05/21 13:17:43;;;;;;;7.13;1.83;;;21.90;57.30;;;;;;4476478;32;20626;-67
2022/05/21 13:20:23;;;;;;;6.78;1.98;;;21.90;57.20;;;;;;4476480;32;20207;-65
2022/05/21 13:23:15;;;;;;;8.52;2.03;;;22.00;57.20;;;;;;4476432;32;20427;-66
2022/05/21 13:25:41;;;;;;;10.40;1.88;;;22.00;57.10;;;;;;4475982;32;20078;-66
2022/05/21 13:28:18;;;;;;;7.95;1.90;;;22.00;57.10;;;;;;4474182;32;20132;-64
2022/05/21 13:30:47;;;;;;;7.35;1.70;;;22.00;57.00;;;;;;4474820;32;20104;-65
2022/05/21 13:33:32;;;;;;;13.82;2.30;;;22.00;57.00;;;;;;4475922;32;20414;-66
2022/05/21 13:36:02;;;;;;;8.50;1.98;;;22.00;57.10;;;;;;4476395;32;20085;-66
2022/05/21 13:38:34;;;;;;;7.80;1.80;;;22.10;57.10;;;;;;4476523;32;20548;-66
2022/05/21 13:41:05;;;;;;;5.70;1.83;;;22.00;57.00;;;;;;4478770;32;20085;-66
2022/05/21 13:43:43;;;;;;;6.88;1.58;;;22.10;57.00;;;;;;4479180;31;20084;-67